createdAt,value
2019-05-30T00:01:05.863Z,3.47
2019-05-30T00:03:35.772Z,3.27
2019-05-30T00:06:04.981Z,2.73
2019-05-30T00:08:34.581Z,2.93
2019-05-30T00:11:04.754Z,2.67
2019-05-30T00:13:34.002Z,3.40
2019-05-30T00:16:03.510Z,2.70
2019-05-30T00:18:33.665Z,2.93
2019-05-30T00:21:02.951Z,2.83
2019-05-30T00:23:33.208Z,2.70
2019-05-30T00:26:03.389Z,2.63
2019-05-30T00:28:32.572Z,2.43
2019-05-30T00:31:02.567Z,2.90
2019-05-30T00:33:31.895Z,2.70
2019-05-30T00:36:01.855Z,3.10
2019-05-30T00:38:31.075Z,3.20
2019-05-30T00:41:00.567Z,2.63
2019-05-30T00:43:30.734Z,2.60
2019-05-30T00:46:00.082Z,2.60
2019-05-30T00:48:30.337Z,3.07
2019-05-30T00:51:00.433Z,2.47
2019-05-30T00:53:29.666Z,2.50
2019-05-30T00:56:01.069Z,2.30
2019-05-30T00:58:30.495Z,2.50
2019-05-30T01:01:00.949Z,2.90
2019-05-30T01:03:30.349Z,3.27
2019-05-30T01:06:00.603Z,2.77
2019-05-30T01:08:30.091Z,2.80
2019-05-30T01:10:59.288Z,2.70
2019-05-30T01:13:28.569Z,3.27
2019-05-30T01:15:58.853Z,3.07
2019-05-30T01:18:29.437Z,2.90
2019-05-30T01:20:59.158Z,3.13
2019-05-30T01:23:29.166Z,3.30
2019-05-30T01:25:59.300Z,2.80
2019-05-30T01:28:28.606Z,2.80
2019-05-30T01:31:02.968Z,3.03
2019-05-30T01:33:28.628Z,2.80
2019-05-30T01:35:57.890Z,2.83
2019-05-30T01:38:27.023Z,3.50
2019-05-30T01:40:57.656Z,2.83
2019-05-30T01:43:27.057Z,2.80
2019-05-30T01:45:58.054Z,2.90
2019-05-30T01:48:27.307Z,3.23
2019-05-30T01:50:56.547Z,2.93
2019-05-30T01:53:26.724Z,3.20
2019-05-30T01:55:56.274Z,3.97
2019-05-30T01:58:25.491Z,4.03
2019-05-30T02:04:35.974Z,3.43
2019-05-30T02:07:05.276Z,4.27
2019-05-30T02:09:34.783Z,3.70
2019-05-30T02:12:03.856Z,2.60
2019-05-30T02:14:32.902Z,2.77
2019-05-30T02:17:01.955Z,2.77
2019-05-30T02:19:31.426Z,3.27
2019-05-30T02:22:01.674Z,3.20
2019-05-30T02:24:31.338Z,2.93
2019-05-30T02:27:02.085Z,2.97
2019-05-30T02:29:31.763Z,3.20
2019-05-30T02:32:01.437Z,3.20
2019-05-30T02:34:31.635Z,3.00
2019-05-30T02:37:01.138Z,3.30
2019-05-30T02:39:31.547Z,3.00
2019-05-30T02:42:01.029Z,3.00
2019-05-30T02:44:30.471Z,3.40
2019-05-30T02:47:01.284Z,3.50
2019-05-30T02:49:30.344Z,3.60
2019-05-30T02:51:59.436Z,3.60
2019-05-30T02:54:28.500Z,3.27
2019-05-30T02:56:57.652Z,2.83
2019-05-30T02:59:26.720Z,3.10
2019-05-30T03:02:01.570Z,2.80
2019-05-30T03:04:26.581Z,2.70
2019-05-30T03:06:55.960Z,3.17
2019-05-30T03:09:25.041Z,3.37
2019-05-30T03:11:54.661Z,3.60
2019-05-30T03:21:08.584Z,3.33
2019-05-30T03:27:19.577Z,3.60
2019-05-30T03:30:42.333Z,3.83
2019-05-30T03:36:52.536Z,3.67
2019-05-30T03:43:04.079Z,2.80
2019-05-30T03:46:27.836Z,3.63
2019-05-30T03:52:38.466Z,4.00
2019-05-30T03:56:01.625Z,3.07
2019-05-30T04:02:55.235Z,3.87
2019-05-30T04:08:51.978Z,4.00
2019-05-30T04:15:10.053Z,3.60
2019-05-30T04:17:40.121Z,3.97
2019-05-30T04:20:11.298Z,3.80
2019-05-30T04:22:40.265Z,3.60
2019-05-30T04:25:10.129Z,3.80
2019-05-30T04:27:39.386Z,4.30
2019-05-30T04:30:09.981Z,3.97
2019-05-30T04:32:39.229Z,3.90
2019-05-30T04:35:10.248Z,4.17
2019-05-30T04:37:39.566Z,4.00
2019-05-30T04:40:08.941Z,3.70
2019-05-30T04:42:38.359Z,4.83
2019-05-30T04:45:09.597Z,3.90
2019-05-30T04:47:38.912Z,3.93
2019-05-30T04:50:09.985Z,4.50
2019-05-30T04:52:39.339Z,4.63
2019-05-30T04:55:10.800Z,5.50
2019-05-30T04:57:40.407Z,5.00
2019-05-30T05:00:10.724Z,4.43
2019-05-30T05:02:40.127Z,4.57
2019-05-30T05:05:11.230Z,4.73
2019-05-30T05:07:40.577Z,5.20
2019-05-30T05:10:11.894Z,7.70
2019-05-30T05:12:41.232Z,8.87
2019-05-30T05:15:12.361Z,8.33
2019-05-30T05:17:41.979Z,7.73
2019-05-30T05:20:11.236Z,6.83
2019-05-30T05:22:40.320Z,7.97
2019-05-30T05:25:09.481Z,6.40
2019-05-30T05:27:39.603Z,5.30
2019-05-30T05:30:10.221Z,5.90
2019-05-30T05:32:39.331Z,7.10
2019-05-30T05:35:09.935Z,5.90
2019-05-30T05:37:39.186Z,6.20
2019-05-30T05:40:08.611Z,7.20
2019-05-30T05:42:37.709Z,9.80
2019-05-30T05:45:07.171Z,8.03
2019-05-30T05:47:37.018Z,6.83
2019-05-30T05:50:06.753Z,6.93
2019-05-30T05:52:35.832Z,7.80
2019-05-30T05:55:05.988Z,9.93
2019-05-30T05:57:35.122Z,7.30
2019-05-30T06:00:04.987Z,6.57
2019-05-30T06:02:34.083Z,5.80
2019-05-30T06:05:03.181Z,5.60
2019-05-30T06:07:32.444Z,10.30
2019-05-30T06:10:01.613Z,8.63
2019-05-30T06:12:30.705Z,6.57
2019-05-30T06:14:59.752Z,8.17
2019-05-30T06:17:29.321Z,6.20
2019-05-30T06:19:58.828Z,5.70
2019-05-30T06:22:28.278Z,6.63
2019-05-30T06:24:57.393Z,8.30
2019-05-30T06:27:26.491Z,7.27
2019-05-30T06:29:55.568Z,8.27
2019-05-30T06:32:24.713Z,5.30
2019-05-30T06:34:54.388Z,8.20
2019-05-30T06:37:23.554Z,7.80
2019-05-30T06:39:52.652Z,5.87
2019-05-30T06:42:22.006Z,5.10
2019-05-30T06:44:51.526Z,4.30
2019-05-30T06:47:22.189Z,4.63
2019-05-30T06:49:51.440Z,5.83
2019-05-30T06:52:20.990Z,5.67
2019-05-30T06:54:50.137Z,4.90
2019-05-30T06:57:19.304Z,4.53
2019-05-30T06:59:48.744Z,4.23
2019-05-30T07:02:17.902Z,6.13
2019-05-30T07:04:52.133Z,4.77
2019-05-30T07:07:18.031Z,6.70
2019-05-30T07:09:48.075Z,4.30
2019-05-30T07:12:17.146Z,4.37
2019-05-30T07:14:46.233Z,3.40
2019-05-30T07:17:15.348Z,3.70
2019-05-30T07:19:45.154Z,4.20
2019-05-30T07:22:14.562Z,4.33
2019-05-30T07:24:43.994Z,4.00
2019-05-30T07:27:13.491Z,3.80
2019-05-30T07:29:42.572Z,4.70
2019-05-30T07:32:13.498Z,3.60
2019-05-30T07:34:45.930Z,3.70
2019-05-30T07:37:14.536Z,3.20
2019-05-30T07:39:43.990Z,3.13
2019-05-30T07:42:13.164Z,2.80
2019-05-30T07:44:42.261Z,2.87
2019-05-30T07:47:11.410Z,2.53
2019-05-30T07:49:41.061Z,1.30
2019-05-30T07:52:10.142Z,1.40
2019-05-30T07:54:39.596Z,1.60
2019-05-30T07:57:09.253Z,1.30
2019-05-30T07:59:39.048Z,1.60
2019-05-30T08:02:08.617Z,1.80
2019-05-30T08:04:37.902Z,1.83
2019-05-30T08:07:07.091Z,2.00
2019-05-30T08:09:36.549Z,3.40
2019-05-30T08:12:06.000Z,1.90
2019-05-30T08:14:37.361Z,1.50
2019-05-30T08:17:06.578Z,1.80
2019-05-30T08:19:38.197Z,1.83
2019-05-30T08:22:07.954Z,1.50
2019-05-30T08:24:38.850Z,2.10
2019-05-30T08:27:13.355Z,1.60
2019-05-30T08:29:43.151Z,1.17
2019-05-30T08:32:12.730Z,2.03
2019-05-30T08:34:41.838Z,1.50
2019-05-30T08:37:10.931Z,1.30
2019-05-30T08:39:43.510Z,1.20
2019-05-30T08:42:13.017Z,1.60
2019-05-30T08:44:42.284Z,1.00
2019-05-30T08:47:20.687Z,1.10
2019-05-30T08:50:03.308Z,1.10
2019-05-30T08:52:32.479Z,1.20
2019-05-30T08:55:03.967Z,1.50
2019-05-30T08:57:34.908Z,1.40
2019-05-30T09:00:05.622Z,1.10
2019-05-30T09:02:35.094Z,1.07
2019-05-30T09:05:07.188Z,0.93
2019-05-30T09:07:38.268Z,1.20
2019-05-30T09:10:09.551Z,1.20
2019-05-30T09:12:40.932Z,1.03
2019-05-30T09:15:10.732Z,1.20
2019-05-30T09:17:40.650Z,1.10
2019-05-30T09:20:11.816Z,1.00
2019-05-30T09:22:41.824Z,1.40
2019-05-30T09:25:12.206Z,1.03
2019-05-30T09:27:42.623Z,1.00
2019-05-30T09:30:13.564Z,1.20
2019-05-30T09:32:43.378Z,1.10
2019-05-30T09:35:13.268Z,0.90
2019-05-30T09:37:43.747Z,0.87
2019-05-30T09:40:15.533Z,0.90
2019-05-30T09:42:46.950Z,0.80
2019-05-30T09:45:17.497Z,1.00
2019-05-30T09:47:47.472Z,0.80
2019-05-30T09:50:19.437Z,0.80
2019-05-30T09:52:49.450Z,1.10
2019-05-30T09:55:19.443Z,0.90
2019-05-30T09:57:49.635Z,0.90
2019-05-30T10:00:20.631Z,0.80
2019-05-30T10:02:50.492Z,1.00
2019-05-30T10:05:24.185Z,1.17
2019-05-30T10:07:52.839Z,0.80
2019-05-30T10:10:22.619Z,1.00
2019-05-30T10:12:52.645Z,0.80
2019-05-30T10:15:24.292Z,0.87
2019-05-30T10:17:54.584Z,0.90
2019-05-30T10:20:23.909Z,0.77
2019-05-30T10:22:53.838Z,0.60
2019-05-30T10:25:23.964Z,0.70
2019-05-30T10:27:54.696Z,1.00
2019-05-30T10:30:25.100Z,0.90
2019-05-30T10:32:55.753Z,1.63
2019-05-30T10:35:25.586Z,0.90
2019-05-30T10:37:54.950Z,0.80
2019-05-30T10:40:24.383Z,1.20
2019-05-30T10:42:55.050Z,0.73
2019-05-30T10:45:25.087Z,0.80
2019-05-30T10:47:57.533Z,0.60
2019-05-30T10:50:26.977Z,0.90
2019-05-30T10:52:56.067Z,1.00
2019-05-30T10:55:25.669Z,1.00
2019-05-30T10:57:58.067Z,0.80
2019-05-30T11:00:51.018Z,0.70
2019-05-30T11:03:22.618Z,0.50
2019-05-30T11:07:06.830Z,0.80
2019-05-30T11:09:25.262Z,0.93
2019-05-30T11:11:54.969Z,1.00
2019-05-30T11:14:24.220Z,0.77
2019-05-30T11:16:53.940Z,0.80
2019-05-30T11:19:22.994Z,0.80
2019-05-30T11:21:52.792Z,0.90
2019-05-30T11:24:22.929Z,0.70
2019-05-30T11:26:53.813Z,1.00
2019-05-30T11:29:23.796Z,1.00
2019-05-30T11:31:52.972Z,0.80
2019-05-30T11:34:22.036Z,0.80
2019-05-30T11:36:51.110Z,0.70
2019-05-30T11:39:20.465Z,1.07
2019-05-30T11:41:51.149Z,0.80
2019-05-30T11:44:20.787Z,0.73
2019-05-30T11:46:49.869Z,0.70
2019-05-30T11:49:18.937Z,0.70
2019-05-30T11:51:49.589Z,0.70
2019-05-30T11:54:18.876Z,0.83
2019-05-30T11:56:47.943Z,1.07
2019-05-30T11:59:17.430Z,1.00
2019-05-30T12:01:47.006Z,1.10
2019-05-30T12:04:16.419Z,0.77
2019-05-30T12:06:45.885Z,0.77
2019-05-30T12:09:14.947Z,0.87
2019-05-30T12:11:44.655Z,0.70
2019-05-30T12:14:14.062Z,0.80
2019-05-30T12:16:43.483Z,1.10
2019-05-30T12:19:12.955Z,0.90
2019-05-30T12:21:42.038Z,0.80
2019-05-30T12:24:11.484Z,0.60
2019-05-30T12:26:40.543Z,0.80
2019-05-30T12:29:09.963Z,0.80
2019-05-30T12:31:39.048Z,0.90
2019-05-30T12:34:08.474Z,0.90
2019-05-30T12:36:37.539Z,0.97
2019-05-30T12:39:07.655Z,0.80
2019-05-30T12:41:36.731Z,1.00
2019-05-30T12:44:05.962Z,0.70
2019-05-30T12:46:35.133Z,0.90
2019-05-30T12:49:04.587Z,0.80
2019-05-30T12:51:34.305Z,0.80
2019-05-30T12:54:03.427Z,1.10
2019-05-30T12:56:32.783Z,0.70
2019-05-30T12:59:03.073Z,0.63
2019-05-30T13:01:32.293Z,0.80
2019-05-30T13:04:01.349Z,1.00
2019-05-30T13:06:30.432Z,0.77
2019-05-30T13:08:59.534Z,0.60
2019-05-30T13:11:29.387Z,0.60
2019-05-30T13:13:58.825Z,0.90
2019-05-30T13:16:28.007Z,0.63
2019-05-30T13:18:57.972Z,0.70
2019-05-30T13:21:27.078Z,0.87
2019-05-30T13:23:57.417Z,0.70
2019-05-30T13:26:26.586Z,0.70
2019-05-30T13:28:56.347Z,0.83
2019-05-30T13:31:25.427Z,0.90
2019-05-30T13:33:54.874Z,0.80
2019-05-30T13:36:24.293Z,1.13
2019-05-30T13:38:53.337Z,0.97
2019-05-30T13:41:22.763Z,0.80
2019-05-30T13:43:52.471Z,0.73
2019-05-30T13:46:22.168Z,0.77
2019-05-30T13:48:51.222Z,0.83
2019-05-30T13:51:21.038Z,0.80
2019-05-30T13:53:50.474Z,0.73
2019-05-30T13:56:19.558Z,0.83
2019-05-30T13:58:48.971Z,1.33
2019-05-30T14:01:18.061Z,1.00
2019-05-30T14:03:48.073Z,0.80
2019-05-30T14:06:17.152Z,1.10
2019-05-30T14:08:46.255Z,0.90
2019-05-30T14:11:16.322Z,1.10
2019-05-30T14:13:46.069Z,0.70
2019-05-30T14:16:15.162Z,1.00
2019-05-30T14:18:44.492Z,0.90
2019-05-30T14:21:13.933Z,0.90
2019-05-30T14:23:43.315Z,0.90
2019-05-30T14:26:12.748Z,1.10
2019-05-30T14:28:41.862Z,1.07
2019-05-30T14:31:13.138Z,0.80
2019-05-30T14:33:42.282Z,0.73
2019-05-30T14:36:13.867Z,0.80
2019-05-30T14:38:57.051Z,0.73
2019-05-30T14:41:14.457Z,1.13
2019-05-30T14:43:43.580Z,0.80
2019-05-30T14:46:12.739Z,0.80
2019-05-30T14:48:41.847Z,0.90
2019-05-30T14:51:11.119Z,0.80
2019-05-30T14:53:40.277Z,0.70
2019-05-30T14:56:10.832Z,0.80
2019-05-30T14:58:40.314Z,0.80
2019-05-30T15:01:09.422Z,0.77
2019-05-30T15:03:38.563Z,0.80
2019-05-30T15:06:10.615Z,0.60
2019-05-30T15:08:39.148Z,0.60
2019-05-30T15:11:09.472Z,0.60
2019-05-30T15:13:38.817Z,0.70
2019-05-30T15:16:08.774Z,0.77
2019-05-30T15:18:38.044Z,0.70
2019-05-30T15:21:08.050Z,0.60
2019-05-30T15:23:38.011Z,0.60
2019-05-30T15:26:07.864Z,1.40
2019-05-30T15:28:37.240Z,1.17
2019-05-30T15:31:06.773Z,2.63
2019-05-30T15:33:36.015Z,1.60
2019-05-30T15:36:05.086Z,1.43
2019-05-30T15:38:34.519Z,0.87
2019-05-30T15:41:03.972Z,0.90
2019-05-30T15:43:33.395Z,0.70
2019-05-30T15:46:02.992Z,0.90
2019-05-30T15:48:32.234Z,0.77
2019-05-30T15:51:01.657Z,0.90
2019-05-30T15:53:30.730Z,0.80
2019-05-30T15:56:00.304Z,0.70
2019-05-30T15:58:29.401Z,0.63
2019-05-30T16:00:58.826Z,0.80
2019-05-30T16:03:28.287Z,0.70
2019-05-30T16:05:57.662Z,0.83
2019-05-30T16:08:27.371Z,0.80
2019-05-30T16:10:56.852Z,0.60
2019-05-30T16:13:26.664Z,0.50
2019-05-30T16:15:55.833Z,0.70
2019-05-30T16:18:25.241Z,0.70
2019-05-30T16:20:54.320Z,0.80
2019-05-30T16:23:23.404Z,0.67
2019-05-30T16:25:57.189Z,0.70
2019-05-30T16:28:26.623Z,0.80
2019-05-30T16:30:55.950Z,0.70
2019-05-30T16:33:30.282Z,0.73
2019-05-30T16:35:59.845Z,0.70
2019-05-30T16:38:28.915Z,0.67
2019-05-30T16:40:58.402Z,2.13
2019-05-30T16:43:27.585Z,1.80
2019-05-30T16:45:56.714Z,1.30
2019-05-30T16:48:26.775Z,0.87
2019-05-30T16:50:56.359Z,0.70
2019-05-30T16:53:25.991Z,0.90
2019-05-30T16:55:55.858Z,0.90
2019-05-30T16:58:25.859Z,1.10
2019-05-30T17:00:55.014Z,1.17
2019-05-30T17:03:25.855Z,0.90
2019-05-30T17:05:55.533Z,0.80
2019-05-30T17:08:24.655Z,0.80
2019-05-30T17:10:53.787Z,1.03
2019-05-30T17:13:23.864Z,0.80
2019-05-30T17:15:53.671Z,0.77
2019-05-30T17:18:22.739Z,0.77
2019-05-30T17:20:52.147Z,0.70
2019-05-30T17:23:22.690Z,0.80
2019-05-30T17:25:51.864Z,0.70
2019-05-30T17:28:22.296Z,0.50
2019-05-30T17:30:51.548Z,0.70
2019-05-30T17:33:22.340Z,0.70
2019-05-30T17:35:51.477Z,0.80
2019-05-30T17:38:20.920Z,0.73
2019-05-30T17:40:51.999Z,0.80
2019-05-30T17:43:21.569Z,0.80
2019-05-30T17:45:50.919Z,0.73
2019-05-30T17:48:19.990Z,0.90
2019-05-30T17:50:49.699Z,0.77
2019-05-30T17:53:19.729Z,0.80
2019-05-30T17:55:48.978Z,0.70
2019-05-30T17:58:18.443Z,0.73
2019-05-30T18:00:47.606Z,0.97
2019-05-30T18:03:16.664Z,1.73
2019-05-30T18:05:46.321Z,1.93
2019-05-30T18:08:16.074Z,3.80
2019-05-30T18:10:53.210Z,5.80
2019-05-30T18:13:16.751Z,3.00
2019-05-30T18:15:45.863Z,2.40
2019-05-30T18:18:14.949Z,2.60
2019-05-30T18:20:48.415Z,2.50
2019-05-30T18:23:15.320Z,1.90
2019-05-30T18:25:44.378Z,2.00
2019-05-30T18:28:13.423Z,1.97
2019-05-30T18:30:43.689Z,2.37
2019-05-30T18:33:13.220Z,4.53
2019-05-30T18:35:42.290Z,4.53
2019-05-30T18:38:11.751Z,6.13
2019-05-30T18:40:41.419Z,4.00
2019-05-30T18:43:10.828Z,2.27
2019-05-30T18:45:41.373Z,1.00
2019-05-30T18:48:11.712Z,0.70
2019-05-30T18:50:40.859Z,0.80
2019-05-30T18:53:10.843Z,0.70
2019-05-30T18:55:39.930Z,0.70
2019-05-30T18:58:09.648Z,0.83
2019-05-30T19:00:39.022Z,0.80
2019-05-30T19:03:08.512Z,0.93
2019-05-30T19:05:38.555Z,0.70
2019-05-30T19:08:08.013Z,0.90
2019-05-30T19:10:37.190Z,1.00
2019-05-30T19:13:06.833Z,1.20
2019-05-30T19:15:37.531Z,0.87
2019-05-30T19:18:09.142Z,0.80
2019-05-30T19:20:38.119Z,0.77
2019-05-30T19:23:07.163Z,0.80
2019-05-30T19:25:36.243Z,1.13
2019-05-30T19:28:05.738Z,1.10
2019-05-30T19:30:35.375Z,1.10
2019-05-30T19:33:04.560Z,0.87
2019-05-30T19:35:35.291Z,0.80
2019-05-30T19:38:05.278Z,0.90
2019-05-30T19:40:38.051Z,1.10
2019-05-30T19:43:09.556Z,1.40
2019-05-30T19:45:42.558Z,1.20
2019-05-30T19:48:11.798Z,1.00
2019-05-30T19:50:42.024Z,0.90
2019-05-30T19:53:11.224Z,0.90
2019-05-30T19:55:41.179Z,0.90
2019-05-30T19:58:10.314Z,0.80
2019-05-30T20:00:57.580Z,0.97
2019-05-30T20:03:13.466Z,1.00
2019-05-30T20:05:44.206Z,1.00
2019-05-30T20:08:13.337Z,0.93
2019-05-30T20:10:45.323Z,1.10
2019-05-30T20:13:14.629Z,0.90
2019-05-30T20:15:43.795Z,1.20
2019-05-30T20:18:13.155Z,1.10
2019-05-30T20:20:54.072Z,1.00
2019-05-30T20:23:13.792Z,0.93
2019-05-30T20:25:45.882Z,0.90
2019-05-30T20:28:14.093Z,1.23
2019-05-30T20:30:44.544Z,1.50
2019-05-30T20:33:13.661Z,1.23
2019-05-30T20:35:43.444Z,1.53
2019-05-30T20:38:12.799Z,1.10
2019-05-30T20:40:43.006Z,1.23
2019-05-30T20:43:12.781Z,1.30
2019-05-30T20:45:46.982Z,1.20
2019-05-30T20:48:13.461Z,1.40
2019-05-30T20:50:43.276Z,1.67
2019-05-30T20:53:12.475Z,1.43
2019-05-30T20:55:42.565Z,1.23
2019-05-30T20:58:12.245Z,1.10
2019-05-30T21:00:42.277Z,1.20
2019-05-30T21:03:12.213Z,1.23
2019-05-30T21:05:44.053Z,1.00
2019-05-30T21:08:15.477Z,1.10
2019-05-30T21:10:44.844Z,0.80
2019-05-30T21:13:13.965Z,1.10
2019-05-30T21:15:46.219Z,1.00
2019-05-30T21:18:16.479Z,1.20
2019-05-30T21:20:46.224Z,1.07
2019-05-30T21:23:15.334Z,1.27
2019-05-30T21:25:47.080Z,1.00
2019-05-30T21:28:16.411Z,1.20
2019-05-30T21:30:45.544Z,1.20
2019-05-30T21:33:14.981Z,1.20
2019-05-30T21:35:44.182Z,1.30
2019-05-30T21:38:13.282Z,1.30
2019-05-30T21:40:44.357Z,1.30
2019-05-30T21:43:14.140Z,1.17
2019-05-30T21:45:44.900Z,1.30
2019-05-30T21:48:16.655Z,0.90
2019-05-30T21:50:49.095Z,1.10
2019-05-30T21:53:19.502Z,1.20
2019-05-30T21:55:50.147Z,1.30
2019-05-30T21:58:20.724Z,1.10
2019-05-30T22:01:38.263Z,1.27
2019-05-30T22:04:07.985Z,1.10
2019-05-30T22:06:37.551Z,1.00
2019-05-30T22:09:10.800Z,1.20
2019-05-30T22:11:41.626Z,1.20
2019-05-30T22:14:11.495Z,1.33
2019-05-30T22:16:44.290Z,1.10
2019-05-30T22:19:13.507Z,1.10
2019-05-30T22:21:54.698Z,1.43
2019-05-30T22:24:23.950Z,1.43
2019-05-30T22:26:53.461Z,1.30
2019-05-30T22:29:22.624Z,1.23
2019-05-30T22:31:53.547Z,1.30
2019-05-30T22:34:23.342Z,1.00
2019-05-30T22:36:54.792Z,1.33
2019-05-30T22:39:23.861Z,1.20
2019-05-30T22:41:56.291Z,1.10
2019-05-30T22:44:26.004Z,1.30
2019-05-30T22:46:56.804Z,1.27
2019-05-30T22:49:28.594Z,1.70
2019-05-30T22:51:57.785Z,1.33
2019-05-30T22:54:26.934Z,1.33
2019-05-30T22:56:56.070Z,1.70
2019-05-30T22:59:25.141Z,1.43
2019-05-30T23:01:58.722Z,1.50
2019-05-30T23:04:27.819Z,1.37
2019-05-30T23:06:57.316Z,1.23
2019-05-30T23:09:26.436Z,1.20
2019-05-30T23:11:59.350Z,1.40
2019-05-30T23:14:28.586Z,1.43
2019-05-30T23:16:58.019Z,1.50
2019-05-30T23:19:27.802Z,2.00
2019-05-30T23:21:57.329Z,1.60
2019-05-30T23:24:27.730Z,1.50
2019-05-30T23:26:57.958Z,1.77
2019-05-30T23:29:30.267Z,1.50
2019-05-30T23:32:03.154Z,1.40
2019-05-30T23:34:34.169Z,1.37
2019-05-30T23:37:03.667Z,1.70
2019-05-30T23:39:32.728Z,1.40
2019-05-30T23:42:02.810Z,1.60
2019-05-30T23:44:35.018Z,1.53
2019-05-30T23:47:05.697Z,1.50
2019-05-30T23:49:34.891Z,1.40
2019-05-30T23:52:06.342Z,1.40
2019-05-30T23:54:36.087Z,1.60
2019-05-30T23:57:05.536Z,1.93
2019-05-30T23:59:36.596Z,1.50
